sensor_id;sensor_type;location;lat;lon;timestamp;pressure;altitude;pressure_sealevel;temperature;humidity
47280;BME280;34064;44.942;0.008;2023-03-17T00:00:44;97921.03;;;15.23;45.65
47280;BME280;34064;44.942;0.008;2023-03-17T00:03:35;97916.53;;;15.23;45.64
47280;BME280;34064;44.942;0.008;2023-03-17T00:06:03;97916.03;;;15.20;45.57
47280;BME280;34064;44.942;0.008;2023-03-17T00:08:35;97905.31;;;15.20;45.44
47280;BME280;34064;44.942;0.008;2023-03-17T00:11:02;97909.81;;;15.19;45.33
47280;BME280;34064;44.942;0.008;2023-03-17T00:13:30;97915.88;;;15.13;45.69
47280;BME280;34064;44.942;0.008;2023-03-17T00:16:03;97900.50;;;15.15;45.47
47280;BME280;34064;44.942;0.008;2023-03-17T00:18:31;97920.22;;;15.06;45.55
47280;BME280;34064;44.942;0.008;2023-03-17T00:21:00;97922.22;;;15.04;45.48
47280;BME280;34064;44.942;0.008;2023-03-17T00:23:28;97911.84;;;15.01;45.56
47280;BME280;34064;44.942;0.008;2023-03-17T00:25:56;97908.34;;;15.00;45.66
47280;BME280;34064;44.942;0.008;2023-03-17T00:28:26;97922.88;;;14.97;45.58
47280;BME280;34064;44.942;0.008;2023-03-17T00:30:59;97929.91;;;14.98;45.50
47280;BME280;34064;44.942;0.008;2023-03-17T00:33:29;97920.38;;;14.96;45.36
47280;BME280;34064;44.942;0.008;2023-03-17T00:36:00;97910.84;;;14.93;45.36
47280;BME280;34064;44.942;0.008;2023-03-17T00:38:28;97910.19;;;14.91;45.39
47280;BME280;34064;44.942;0.008;2023-03-17T00:40:55;97925.53;;;14.89;45.54
47280;BME280;34064;44.942;0.008;2023-03-17T00:43:23;97931.06;;;14.88;45.77
47280;BME280;34064;44.942;0.008;2023-03-17T00:45:51;97914.84;;;14.89;45.65
47280;BME280;34064;44.942;0.008;2023-03-17T00:48:20;97914.22;;;14.87;45.45
47280;BME280;34064;44.942;0.008;2023-03-17T00:50:49;97919.88;;;14.84;45.72
47280;BME280;34064;44.942;0.008;2023-03-17T00:53:18;97913.84;;;14.82;45.71
47280;BME280;34064;44.942;0.008;2023-03-17T00:55:46;97923.22;;;14.78;45.87
47280;BME280;34064;44.942;0.008;2023-03-17T00:58:32;97920.88;;;14.83;45.87
47280;BME280;34064;44.942;0.008;2023-03-17T01:01:00;97924.88;;;14.79;45.89
47280;BME280;34064;44.942;0.008;2023-03-17T01:03:27;97931.56;;;14.75;46.39
47280;BME280;34064;44.942;0.008;2023-03-17T01:05:54;97930.88;;;14.73;46.59
47280;BME280;34064;44.942;0.008;2023-03-17T01:08:23;97923.22;;;14.78;46.26
47280;BME280;34064;44.942;0.008;2023-03-17T01:10:51;97922.88;;;14.73;46.16
47280;BME280;34064;44.942;0.008;2023-03-17T01:13:17;97916.03;;;14.70;46.41
47280;BME280;34064;44.942;0.008;2023-03-17T01:15:46;97926.91;;;14.69;46.61
47280;BME280;34064;44.942;0.008;2023-03-17T01:18:15;97914.53;;;14.68;46.78
47280;BME280;34064;44.942;0.008;2023-03-17T01:20:42;97920.88;;;14.66;46.82
47280;BME280;34064;44.942;0.008;2023-03-17T01:23:10;97937.88;;;14.65;46.66
47280;BME280;34064;44.942;0.008;2023-03-17T01:25:38;97922.53;;;14.68;46.80
47280;BME280;34064;44.942;0.008;2023-03-17T01:28:05;97927.03;;;14.67;47.04
47280;BME280;34064;44.942;0.008;2023-03-17T01:30:35;97949.28;;;14.68;47.00
47280;BME280;34064;44.942;0.008;2023-03-17T01:33:07;97923.00;;;14.63;46.96
47280;BME280;34064;44.942;0.008;2023-03-17T01:35:35;97927.84;;;14.59;47.06
47280;BME280;34064;44.942;0.008;2023-03-17T01:38:03;97935.88;;;14.59;47.10
47280;BME280;34064;44.942;0.008;2023-03-17T01:40:34;97931.34;;;14.60;47.16
47280;BME280;34064;44.942;0.008;2023-03-17T01:48:35;97917.47;;;14.56;47.39
47280;BME280;34064;44.942;0.008;2023-03-17T01:51:03;97926.13;;;14.50;47.65
47280;BME280;34064;44.942;0.008;2023-03-17T01:53:32;97930.66;;;14.49;47.85
47280;BME280;34064;44.942;0.008;2023-03-17T01:55:59;97921.81;;;14.49;47.78
47280;BME280;34064;44.942;0.008;2023-03-17T01:58:27;97931.47;;;14.50;47.85
47280;BME280;34064;44.942;0.008;2023-03-17T02:00:54;97922.63;;;14.49;47.94
47280;BME280;34064;44.942;0.008;2023-03-17T02:03:22;97934.50;;;14.47;48.15
47280;BME280;34064;44.942;0.008;2023-03-17T02:05:51;97934.63;;;14.45;47.84
47280;BME280;34064;44.942;0.008;2023-03-17T02:08:17;97948.16;;;14.44;48.34
47280;BME280;34064;44.942;0.008;2023-03-17T02:10:45;97944.69;;;14.43;48.23
47280;BME280;34064;44.942;0.008;2023-03-17T02:13:14;97946.50;;;14.43;48.43
47280;BME280;34064;44.942;0.008;2023-03-17T02:15:50;97941.16;;;14.43;48.42
47280;BME280;34064;44.942;0.008;2023-03-17T02:18:19;97918.09;;;14.42;48.39
47280;BME280;34064;44.942;0.008;2023-03-17T02:21:23;97917.28;;;14.41;48.55
47280;BME280;34064;44.942;0.008;2023-03-17T02:23:33;97912.75;;;14.42;49.08
47280;BME280;34064;44.942;0.008;2023-03-17T02:25:59;97909.94;;;14.43;48.81
47280;BME280;34064;44.942;0.008;2023-03-17T02:28:29;97909.09;;;14.43;48.79
47280;BME280;34064;44.942;0.008;2023-03-17T02:30:56;97915.59;;;14.40;48.68
47280;BME280;34064;44.942;0.008;2023-03-17T02:33:22;97901.25;;;14.41;49.05
47280;BME280;34064;44.942;0.008;2023-03-17T02:35:49;97912.13;;;14.48;48.94
47280;BME280;34064;44.942;0.008;2023-03-17T02:38:16;97915.44;;;14.50;49.16
47280;BME280;34064;44.942;0.008;2023-03-17T02:40:42;97897.41;;;14.52;49.37
47280;BME280;34064;44.942;0.008;2023-03-17T02:43:09;97896.78;;;14.58;49.01
47280;BME280;34064;44.942;0.008;2023-03-17T02:45:35;97894.75;;;14.60;49.38
47280;BME280;34064;44.942;0.008;2023-03-17T02:48:01;97888.41;;;14.61;49.46
47280;BME280;34064;44.942;0.008;2023-03-17T02:50:29;97894.75;;;14.60;49.58
47280;BME280;34064;44.942;0.008;2023-03-17T02:52:56;97893.94;;;14.60;49.62
47280;BME280;34064;44.942;0.008;2023-03-17T02:55:23;97888.25;;;14.63;49.42
47280;BME280;34064;44.942;0.008;2023-03-17T02:57:49;97891.09;;;14.61;49.82
47280;BME280;34064;44.942;0.008;2023-03-17T03:00:16;97892.25;;;14.59;49.70
47280;BME280;34064;44.942;0.008;2023-03-17T03:02:44;97894.75;;;14.60;49.77
47280;BME280;34064;44.942;0.008;2023-03-17T03:05:10;97892.06;;;14.60;49.91
47280;BME280;34064;44.942;0.008;2023-03-17T03:07:37;97894.75;;;14.60;50.20
47280;BME280;34064;44.942;0.008;2023-03-17T03:10:04;97900.94;;;14.61;50.13
47280;BME280;34064;44.942;0.008;2023-03-17T03:12:31;97885.72;;;14.61;50.16
47280;BME280;34064;44.942;0.008;2023-03-17T03:14:57;97891.47;;;14.66;50.04
47280;BME280;34064;44.942;0.008;2023-03-17T03:17:23;97897.59;;;14.59;50.48
47280;BME280;34064;44.942;0.008;2023-03-17T03:19:50;97884.72;;;14.62;50.35
47280;BME280;34064;44.942;0.008;2023-03-17T03:22:16;97878.09;;;14.66;50.34
47280;BME280;34064;44.942;0.008;2023-03-17T03:24:42;97886.13;;;14.66;50.37
47280;BME280;34064;44.942;0.008;2023-03-17T03:27:09;97882.91;;;14.63;50.68
47280;BME280;34064;44.942;0.008;2023-03-17T03:29:36;97884.63;;;14.72;50.57
47280;BME280;34064;44.942;0.008;2023-03-17T03:32:03;97881.78;;;14.74;50.36
47280;BME280;34064;44.942;0.008;2023-03-17T03:34:29;97882.59;;;14.74;50.41
47280;BME280;34064;44.942;0.008;2023-03-17T03:36:56;97885.13;;;14.68;50.77
47280;BME280;34064;44.942;0.008;2023-03-17T03:39:23;97887.13;;;14.74;50.63
47280;BME280;34064;44.942;0.008;2023-03-17T03:41:49;97893.47;;;14.73;50.98
47280;BME280;34064;44.942;0.008;2023-03-17T03:44:15;97892.47;;;14.74;50.79
47280;BME280;34064;44.942;0.008;2023-03-17T03:46:42;97885.25;;;14.74;50.56
47280;BME280;34064;44.942;0.008;2023-03-17T03:49:08;97889.47;;;14.77;50.74
47280;BME280;34064;44.942;0.008;2023-03-17T03:51:34;97882.09;;;14.79;50.70
47280;BME280;34064;44.942;0.008;2023-03-17T03:54:01;97905.50;;;14.77;50.73
47280;BME280;34064;44.942;0.008;2023-03-17T03:56:27;97897.00;;;14.73;51.10
47280;BME280;34064;44.942;0.008;2023-03-17T03:58:53;97892.66;;;14.72;50.92
47280;BME280;34064;44.942;0.008;2023-03-17T04:01:21;97916.03;;;14.70;51.20
47280;BME280;34064;44.942;0.008;2023-03-17T04:03:47;97910.69;;;14.70;51.35
47280;BME280;34064;44.942;0.008;2023-03-17T04:06:14;97903.34;;;14.72;51.15
47280;BME280;34064;44.942;0.008;2023-03-17T04:08:41;97916.53;;;14.74;51.04
47280;BME280;34064;44.942;0.008;2023-03-17T04:11:07;97913.66;;;14.75;51.09
47280;BME280;34064;44.942;0.008;2023-03-17T04:13:34;97935.00;;;14.59;51.60
47280;BME280;34064;44.942;0.008;2023-03-17T04:16:01;97925.50;;;14.56;51.74
47280;BME280;34064;44.942;0.008;2023-03-17T04:18:29;97927.16;;;14.57;51.90
47280;BME280;34064;44.942;0.008;2023-03-17T04:20:56;97925.19;;;14.59;52.01
47280;BME280;34064;44.942;0.008;2023-03-17T04:23:23;97924.00;;;14.62;51.81
47280;BME280;34064;44.942;0.008;2023-03-17T04:25:51;97923.38;;;14.68;51.82
47280;BME280;34064;44.942;0.008;2023-03-17T04:28:17;97916.03;;;14.70;51.63
47280;BME280;34064;44.942;0.008;2023-03-17T04:30:44;97919.19;;;14.82;51.53
47280;BME280;34064;44.942;0.008;2023-03-17T04:33:11;97929.56;;;14.85;51.44
47280;BME280;34064;44.942;0.008;2023-03-17T04:35:37;97932.38;;;14.84;51.34
47280;BME280;34064;44.942;0.008;2023-03-17T04:38:04;97938.59;;;14.84;51.51
47280;BME280;34064;44.942;0.008;2023-03-17T04:40:30;97933.91;;;14.86;51.46
47280;BME280;34064;44.942;0.008;2023-03-17T04:42:56;97928.56;;;14.86;51.57
47280;BME280;34064;44.942;0.008;2023-03-17T04:45:23;97925.53;;;14.89;51.71
47280;BME280;34064;44.942;0.008;2023-03-17T04:47:50;97944.94;;;14.91;51.62
47280;BME280;34064;44.942;0.008;2023-03-17T04:50:16;97937.25;;;14.88;51.59
47280;BME280;34064;44.942;0.008;2023-03-17T04:52:43;97941.25;;;14.92;51.66
47280;BME280;34064;44.942;0.008;2023-03-17T04:55:09;97926.41;;;14.90;51.62
47280;BME280;34064;44.942;0.008;2023-03-17T04:57:37;97936.25;;;14.89;51.46
47280;BME280;34064;44.942;0.008;2023-03-17T05:00:05;97948.63;;;14.90;51.51
47280;BME280;34064;44.942;0.008;2023-03-17T05:02:32;97945.44;;;14.95;51.78
47280;BME280;34064;44.942;0.008;2023-03-17T05:04:59;97937.59;;;14.93;51.76
47280;BME280;34064;44.942;0.008;2023-03-17T05:07:26;97943.25;;;14.90;51.84
47280;BME280;34064;44.942;0.008;2023-03-17T05:09:52;97947.78;;;14.90;51.78
47280;BME280;34064;44.942;0.008;2023-03-17T05:12:18;97953.97;;;14.90;51.72
47280;BME280;34064;44.942;0.008;2023-03-17T05:14:45;97945.25;;;14.88;52.02
47280;BME280;34064;44.942;0.008;2023-03-17T05:17:12;97946.78;;;14.82;52.11
47280;BME280;34064;44.942;0.008;2023-03-17T05:19:38;97950.47;;;14.81;52.26
47280;BME280;34064;44.942;0.008;2023-03-17T05:22:05;97947.09;;;14.79;52.39
47280;BME280;34064;44.942;0.008;2023-03-17T05:24:32;97956.63;;;14.82;52.42
47280;BME280;34064;44.942;0.008;2023-03-17T05:26:58;97960.47;;;14.88;52.24
47280;BME280;34064;44.942;0.008;2023-03-17T05:29:25;97953.97;;;14.82;52.41
47280;BME280;34064;44.942;0.008;2023-03-17T05:31:51;97953.28;;;14.80;52.53
47280;BME280;34064;44.942;0.008;2023-03-17T05:34:17;97950.97;;;14.85;52.57
47280;BME280;34064;44.942;0.008;2023-03-17T05:36:44;97958.47;;;14.90;52.20
47280;BME280;34064;44.942;0.008;2023-03-17T05:39:11;97957.63;;;14.89;52.46
47280;BME280;34064;44.942;0.008;2023-03-17T05:41:37;97953.97;;;14.90;52.35
47280;BME280;34064;44.942;0.008;2023-03-17T05:44:04;97950.78;;;14.95;52.53
47280;BME280;34064;44.942;0.008;2023-03-17T05:46:32;97953.97;;;14.90;52.83
47280;BME280;34064;44.942;0.008;2023-03-17T05:49:00;97947.13;;;14.96;52.52
47280;BME280;34064;44.942;0.008;2023-03-17T05:51:28;97947.97;;;14.96;52.47
47280;BME280;34064;44.942;0.008;2023-03-17T05:53:55;97955.81;;;14.98;52.54
47280;BME280;34064;44.942;0.008;2023-03-17T05:56:25;97949.63;;;14.97;52.86
47280;BME280;34064;44.942;0.008;2023-03-17T05:58:59;97959.47;;;14.97;52.69
47280;BME280;34064;44.942;0.008;2023-03-17T06:01:28;97955.31;;;14.94;52.82
47280;BME280;34064;44.942;0.008;2023-03-17T06:03:55;97972.69;;;14.98;52.78
47280;BME280;34064;44.942;0.008;2023-03-17T06:06:23;97974.53;;;14.98;52.69
47280;BME280;34064;44.942;0.008;2023-03-17T06:08:51;97970.00;;;14.98;52.83
47280;BME280;34064;44.942;0.008;2023-03-17T06:11:19;97969.84;;;15.00;52.88
47280;BME280;34064;44.942;0.008;2023-03-17T06:13:49;97978.03;;;14.98;52.82
47280;BME280;34064;44.942;0.008;2023-03-17T06:16:17;97979.56;;;15.01;52.90
47280;BME280;34064;44.942;0.008;2023-03-17T06:18:45;97982.22;;;15.01;52.94
47280;BME280;34064;44.942;0.008;2023-03-17T06:21:13;97976.03;;;15.01;52.94
47280;BME280;34064;44.942;0.008;2023-03-17T06:23:41;97987.06;;;14.97;53.22
47280;BME280;34064;44.942;0.008;2023-03-17T06:26:09;97994.75;;;15.01;53.07
47280;BME280;34064;44.942;0.008;2023-03-17T06:28:36;97992.06;;;15.01;53.12
47280;BME280;34064;44.942;0.008;2023-03-17T06:31:04;97996.75;;;14.98;53.19
47280;BME280;34064;44.942;0.008;2023-03-17T06:33:31;98004.78;;;14.98;53.31
47280;BME280;34064;44.942;0.008;2023-03-17T06:36:00;98007.78;;;14.95;53.52
47280;BME280;34064;44.942;0.008;2023-03-17T06:38:28;98006.81;;;14.96;53.34
47280;BME280;34064;44.942;0.008;2023-03-17T06:40:55;98008.13;;;15.01;53.76
47280;BME280;34064;44.942;0.008;2023-03-17T06:43:24;98018.81;;;15.09;53.44
47280;BME280;34064;44.942;0.008;2023-03-17T06:45:52;98024.53;;;15.14;53.19
47280;BME280;34064;44.942;0.008;2023-03-17T06:48:19;98023.69;;;15.13;53.30
47280;BME280;34064;44.942;0.008;2023-03-17T06:50:49;98026.53;;;15.20;53.25
47280;BME280;34064;44.942;0.008;2023-03-17T06:53:16;98027.53;;;15.19;53.29
47280;BME280;34064;44.942;0.008;2023-03-17T06:55:42;98030.88;;;15.21;53.45
47280;BME280;34064;44.942;0.008;2023-03-17T06:58:10;98019.69;;;15.26;53.25
47280;BME280;34064;44.942;0.008;2023-03-17T07:00:38;98024.22;;;15.25;53.27
47280;BME280;34064;44.942;0.008;2023-03-17T07:03:05;98038.91;;;15.29;53.20
47280;BME280;34064;44.942;0.008;2023-03-17T07:05:32;98031.56;;;15.32;53.36
47280;BME280;34064;44.942;0.008;2023-03-17T07:07:58;98033.06;;;15.34;53.34
47280;BME280;34064;44.942;0.008;2023-03-17T07:10:25;98029.22;;;15.37;53.21
47280;BME280;34064;44.942;0.008;2023-03-17T07:12:51;98017.34;;;15.39;53.38
47280;BME280;34064;44.942;0.008;2023-03-17T07:15:18;98027.22;;;15.39;53.35
47280;BME280;34064;44.942;0.008;2023-03-17T07:17:45;98033.91;;;15.43;53.33
47280;BME280;34064;44.942;0.008;2023-03-17T07:20:13;98034.22;;;15.48;53.38
47280;BME280;34064;44.942;0.008;2023-03-17T07:22:39;98030.88;;;15.46;53.47
47280;BME280;34064;44.942;0.008;2023-03-17T07:25:06;98026.69;;;15.52;53.23
47280;BME280;34064;44.942;0.008;2023-03-17T07:27:33;98022.84;;;15.54;53.50
47280;BME280;34064;44.942;0.008;2023-03-17T07:29:59;98022.50;;;15.57;53.30
47280;BME280;34064;44.942;0.008;2023-03-17T07:32:30;98028.03;;;15.56;53.60
47280;BME280;34064;44.942;0.008;2023-03-17T07:34:56;98034.41;;;15.55;53.76
47280;BME280;34064;44.942;0.008;2023-03-17T07:37:23;98044.94;;;15.56;53.65
47280;BME280;34064;44.942;0.008;2023-03-17T07:39:50;98056.31;;;15.58;53.63
47280;BME280;34064;44.942;0.008;2023-03-17T07:42:17;98064.16;;;15.60;53.79
47280;BME280;34064;44.942;0.008;2023-03-17T07:44:43;98050.63;;;15.62;53.87
47280;BME280;34064;44.942;0.008;2023-03-17T07:47:10;98054.97;;;15.63;53.78
47280;BME280;34064;44.942;0.008;2023-03-17T07:49:37;98054.47;;;15.67;53.81
47280;BME280;34064;44.942;0.008;2023-03-17T07:52:04;98044.41;;;15.69;53.75
47280;BME280;34064;44.942;0.008;2023-03-17T07:54:30;98058.66;;;15.70;53.70
47280;BME280;34064;44.942;0.008;2023-03-17T07:56:57;98051.09;;;15.82;53.60
47280;BME280;34064;44.942;0.008;2023-03-17T07:59:24;98067.53;;;15.87;53.50
47280;BME280;34064;44.942;0.008;2023-03-17T08:01:50;98077.06;;;15.89;53.59
47280;BME280;34064;44.942;0.008;2023-03-17T08:04:16;98083.59;;;15.95;53.44
47280;BME280;34064;44.942;0.008;2023-03-17T08:06:43;98085.09;;;15.98;53.55
47280;BME280;34064;44.942;0.008;2023-03-17T08:09:12;98088.28;;;16.01;53.41
47280;BME280;34064;44.942;0.008;2023-03-17T08:11:38;98078.22;;;16.03;53.49
47280;BME280;34064;44.942;0.008;2023-03-17T08:14:06;98085.25;;;16.04;53.35
47280;BME280;34064;44.942;0.008;2023-03-17T08:16:32;98074.69;;;16.11;53.49
47280;BME280;34064;44.942;0.008;2023-03-17T08:18:59;98080.03;;;16.11;53.32
47280;BME280;34064;44.942;0.008;2023-03-17T08:21:25;98078.69;;;16.15;53.50
47280;BME280;34064;44.942;0.008;2023-03-17T08:23:53;98066.13;;;16.16;53.27
47280;BME280;34064;44.942;0.008;2023-03-17T08:26:20;98066.28;;;16.22;53.39
47280;BME280;34064;44.942;0.008;2023-03-17T08:28:47;98066.94;;;16.25;53.41
47280;BME280;34064;44.942;0.008;2023-03-17T08:31:16;98074.28;;;16.31;53.33
47280;BME280;34064;44.942;0.008;2023-03-17T08:33:46;98057.06;;;16.33;53.35
47280;BME280;34064;44.942;0.008;2023-03-17T08:36:14;98061.03;;;16.37;53.21
47280;BME280;34064;44.942;0.008;2023-03-17T08:38:42;98063.88;;;16.44;53.26
47280;BME280;34064;44.942;0.008;2023-03-17T08:41:12;98065.84;;;16.50;52.90
47280;BME280;34064;44.942;0.008;2023-03-17T08:43:40;98068.69;;;16.57;53.02
47280;BME280;34064;44.942;0.008;2023-03-17T08:48:39;98076.69;;;16.65;52.74
47280;BME280;34064;44.942;0.008;2023-03-17T08:51:06;98073.19;;;16.65;52.62
47280;BME280;34064;44.942;0.008;2023-03-17T08:53:33;98059.91;;;16.72;52.70
47280;BME280;34064;44.942;0.008;2023-03-17T08:56:01;98053.69;;;16.71;52.75
47280;BME280;34064;44.942;0.008;2023-03-17T08:58:27;98049.19;;;16.72;52.64
47280;BME280;34064;44.942;0.008;2023-03-17T09:00:57;98051.69;;;16.73;52.87
47280;BME280;34064;44.942;0.008;2023-03-17T09:03:23;98051.69;;;16.73;52.91
47280;BME280;34064;44.942;0.008;2023-03-17T09:05:50;98038.56;;;16.78;52.87
47280;BME280;34064;44.942;0.008;2023-03-17T09:08:17;98039.91;;;16.82;52.91
47280;BME280;34064;44.942;0.008;2023-03-17T09:10:43;98046.09;;;16.83;52.71
47280;BME280;34064;44.942;0.008;2023-03-17T09:13:10;98042.53;;;16.91;52.84
47280;BME280;34064;44.942;0.008;2023-03-17T09:15:36;98033.16;;;16.95;52.86
47280;BME280;34064;44.942;0.008;2023-03-17T09:18:04;98020.22;;;16.98;52.56
47280;BME280;34064;44.942;0.008;2023-03-17T09:20:31;98032.44;;;17.01;52.62
47280;BME280;34064;44.942;0.008;2023-03-17T09:22:57;98028.56;;;17.04;52.77
47280;BME280;34064;44.942;0.008;2023-03-17T09:25:24;98034.25;;;17.09;52.61
47280;BME280;34064;44.942;0.008;2023-03-17T09:27:51;98018.25;;;17.15;52.43
47280;BME280;34064;44.942;0.008;2023-03-17T09:30:17;98023.94;;;17.21;52.41
47280;BME280;34064;44.942;0.008;2023-03-17T09:32:44;98030.59;;;17.25;52.37
47280;BME280;34064;44.942;0.008;2023-03-17T09:35:11;98047.06;;;17.22;52.57
47280;BME280;34064;44.942;0.008;2023-03-17T09:37:38;98046.41;;;17.20;52.83
47280;BME280;34064;44.942;0.008;2023-03-17T09:40:05;98034.94;;;17.26;52.55
47280;BME280;34064;44.942;0.008;2023-03-17T09:42:55;98036.16;;;17.23;52.84
47280;BME280;34064;44.942;0.008;2023-03-17T09:45:33;98032.09;;;17.27;52.50
47280;BME280;34064;44.942;0.008;2023-03-17T09:48:16;98036.75;;;17.34;52.50
47280;BME280;34064;44.942;0.008;2023-03-17T09:51:05;98023.59;;;17.39;52.23
47280;BME280;34064;44.942;0.008;2023-03-17T09:54:33;98007.03;;;17.35;52.33
47280;BME280;34064;44.942;0.008;2023-03-17T09:56:31;97992.59;;;17.36;52.33
47280;BME280;34064;44.942;0.008;2023-03-17T09:59:08;97994.47;;;17.36;52.77
47280;BME280;34064;44.942;0.008;2023-03-17T10:01:42;97979.63;;;17.40;52.67
47280;BME280;34064;44.942;0.008;2023-03-17T10:04:10;97979.09;;;17.44;52.27
47280;BME280;34064;44.942;0.008;2023-03-17T10:06:40;97971.69;;;17.46;52.28
47280;BME280;34064;44.942;0.008;2023-03-17T10:14:46;98011.78;;;17.48;52.26
47280;BME280;34064;44.942;0.008;2023-03-17T10:17:27;98017.66;;;17.52;52.28
47280;BME280;34064;44.942;0.008;2023-03-17T10:22:49;98020.53;;;17.65;51.87
47280;BME280;34064;44.942;0.008;2023-03-17T10:25:21;98015.47;;;17.70;51.68
47280;BME280;34064;44.942;0.008;2023-03-17T10:30:30;98028.44;;;17.82;51.75
47280;BME280;34064;44.942;0.008;2023-03-17T10:33:00;98019.19;;;17.84;51.88
47280;BME280;34064;44.942;0.008;2023-03-17T10:35:27;98012.50;;;17.95;51.55
47280;BME280;34064;44.942;0.008;2023-03-17T10:37:54;98012.19;;;17.98;51.51
47280;BME280;34064;44.942;0.008;2023-03-17T10:40:28;98021.84;;;18.07;51.29
47280;BME280;34064;44.942;0.008;2023-03-17T10:43:06;98027.22;;;18.07;51.27
47280;BME280;34064;44.942;0.008;2023-03-17T10:45:54;98031.84;;;18.14;51.03
47280;BME280;34064;44.942;0.008;2023-03-17T10:48:22;98031.84;;;18.14;51.07
47280;BME280;34064;44.942;0.008;2023-03-17T10:50:50;98023.22;;;18.18;50.83
47280;BME280;34064;44.942;0.008;2023-03-17T10:53:24;98019.31;;;18.21;50.94
47280;BME280;34064;44.942;0.008;2023-03-17T10:58:42;98012.47;;;18.33;50.76
47280;BME280;34064;44.942;0.008;2023-03-17T11:04:01;97999.94;;;18.40;50.26
47280;BME280;34064;44.942;0.008;2023-03-17T11:06:41;97999.09;;;18.40;50.11
47280;BME280;34064;44.942;0.008;2023-03-17T11:09:14;97994.19;;;18.44;50.11
47280;BME280;34064;44.942;0.008;2023-03-17T11:11:46;97995.84;;;18.45;50.26
47280;BME280;34064;44.942;0.008;2023-03-17T11:14:15;97997.53;;;18.46;50.41
47280;BME280;34064;44.942;0.008;2023-03-17T11:17:11;97995.09;;;18.51;50.44
47280;BME280;34064;44.942;0.008;2023-03-17T11:22:17;97978.72;;;18.67;49.89
47280;BME280;34064;44.942;0.008;2023-03-17T11:27:48;97977.66;;;18.83;49.35
47280;BME280;34064;44.942;0.008;2023-03-17T11:30:30;97969.19;;;19.01;48.72
47280;BME280;34064;44.942;0.008;2023-03-17T11:33:14;97966.75;;;19.07;48.62
47280;BME280;34064;44.942;0.008;2023-03-17T11:38:56;97962.44;;;19.34;48.69
47280;BME280;34064;44.942;0.008;2023-03-17T11:53:19;97914.88;;;20.18;46.69
47280;BME280;34064;44.942;0.008;2023-03-17T11:56:00;97924.88;;;20.24;45.96
47280;BME280;34064;44.942;0.008;2023-03-17T11:58:55;97911.41;;;20.31;45.99
47280;BME280;34064;44.942;0.008;2023-03-17T12:01:31;97901.94;;;20.55;46.02
47280;BME280;34064;44.942;0.008;2023-03-17T12:04:24;97901.59;;;20.85;44.98
47280;BME280;34064;44.942;0.008;2023-03-17T12:06:57;97894.78;;;21.16;44.78
47280;BME280;34064;44.942;0.008;2023-03-17T12:09:40;97880.22;;;21.31;44.43
47280;BME280;34064;44.942;0.008;2023-03-17T12:12:10;97880.19;;;21.51;43.97
47280;BME280;34064;44.942;0.008;2023-03-17T12:14:52;97882.06;;;21.50;43.69
47280;BME280;34064;44.942;0.008;2023-03-17T12:17:38;97883.53;;;21.33;43.67
47280;BME280;34064;44.942;0.008;2023-03-17T12:20:11;97903.06;;;21.22;43.83
47280;BME280;34064;44.942;0.008;2023-03-17T12:22:46;97917.22;;;21.10;44.50
47280;BME280;34064;44.942;0.008;2023-03-17T12:25:23;97913.25;;;21.06;44.40
47280;BME280;34064;44.942;0.008;2023-03-17T12:28:18;97901.41;;;21.00;44.53
47280;BME280;34064;44.942;0.008;2023-03-17T12:31:42;97896.00;;;20.94;44.79
47280;BME280;34064;44.942;0.008;2023-03-17T12:34:12;97908.44;;;20.88;45.08
47280;BME280;34064;44.942;0.008;2023-03-17T12:36:43;97901.41;;;20.80;44.42
47280;BME280;34064;44.942;0.008;2023-03-17T12:39:23;97907.38;;;20.69;45.33
47280;BME280;34064;44.942;0.008;2023-03-17T12:41:58;97905.06;;;20.66;45.64
47280;BME280;34064;44.942;0.008;2023-03-17T12:55:40;97908.38;;;20.54;45.49
47280;BME280;34064;44.942;0.008;2023-03-17T13:01:10;97909.63;;;20.58;45.59
47280;BME280;34064;44.942;0.008;2023-03-17T13:03:57;97905.91;;;20.60;45.33
47280;BME280;34064;44.942;0.008;2023-03-17T13:06:25;97883.91;;;20.69;45.34
47280;BME280;34064;44.942;0.008;2023-03-17T13:08:55;97889.38;;;20.90;45.21
47280;BME280;34064;44.942;0.008;2023-03-17T13:20:10;97882.72;;;21.19;44.80
47280;BME280;34064;44.942;0.008;2023-03-17T13:25:33;97870.66;;;21.22;44.69
47280;BME280;34064;44.942;0.008;2023-03-17T13:30:56;97839.22;;;21.74;43.92
47280;BME280;34064;44.942;0.008;2023-03-17T13:33:31;97825.19;;;22.04;43.77
47280;BME280;34064;44.942;0.008;2023-03-17T13:36:00;97822.09;;;22.33;43.55
47280;BME280;34064;44.942;0.008;2023-03-17T13:43:45;97808.44;;;22.85;41.17
47280;BME280;34064;44.942;0.008;2023-03-17T13:46:27;97816.53;;;22.59;41.79
47280;BME280;34064;44.942;0.008;2023-03-17T13:48:59;97822.78;;;22.60;41.89
47280;BME280;34064;44.942;0.008;2023-03-17T13:51:31;97812.22;;;22.77;41.23
47280;BME280;34064;44.942;0.008;2023-03-17T13:56:51;97802.25;;;23.28;41.06
47280;BME280;34064;44.942;0.008;2023-03-17T14:02:23;97827.13;;;23.18;40.76
47280;BME280;34064;44.942;0.008;2023-03-17T14:05:02;97836.22;;;22.99;39.99
47280;BME280;34064;44.942;0.008;2023-03-17T14:10:20;97857.78;;;22.55;40.77
47280;BME280;34064;44.942;0.008;2023-03-17T14:13:11;97853.50;;;22.40;41.14
47280;BME280;34064;44.942;0.008;2023-03-17T14:16:00;97847.84;;;22.49;41.07
47280;BME280;34064;44.942;0.008;2023-03-17T14:18:43;97834.03;;;22.89;40.83
47280;BME280;34064;44.942;0.008;2023-03-17T14:21:21;97821.25;;;23.21;40.57
47280;BME280;34064;44.942;0.008;2023-03-17T14:24:02;97804.34;;;23.45;40.51
47280;BME280;34064;44.942;0.008;2023-03-17T14:26:30;97797.34;;;23.56;40.81
47280;BME280;34064;44.942;0.008;2023-03-17T14:29:02;97807.25;;;23.43;39.82
47280;BME280;34064;44.942;0.008;2023-03-17T14:31:30;97817.88;;;23.26;40.42
47280;BME280;34064;44.942;0.008;2023-03-17T14:33:59;97805.03;;;23.15;40.05
47280;BME280;34064;44.942;0.008;2023-03-17T14:36:27;97812.09;;;22.97;40.61
47280;BME280;34064;44.942;0.008;2023-03-17T14:38:55;97828.00;;;22.87;40.88
47280;BME280;34064;44.942;0.008;2023-03-17T14:41:28;97829.03;;;22.86;40.54